Harvington, United Kingdom
Current Conditions -  °F | °C
As of 7:20 PM on Tuesday 25 Nov 2014 (Local Time) from EGBJ Reporting Station
Moderate Rain Moderate Rain  
Wind Chill: 41°   Ceiling: 1800
Heat Index: 41°   Visibility: 2.5mi
Dew Point: 41°   Wind: 3mph
Humidity: 100%   Direction: 20°NNE
Pressure: 30.09"   Gusts: NA
Location:  52.13°N, 1.92°W
Report Text: EGBJ 251920Z 02003KT 4000 RA BR SCT006 BKN018 05/05 Q1019
Loading
Personal Weather Stations






























Interactive Weather Map New forecast layout! Learn more

10-Day Weather Forecast

Advertisements
Track Severe Weather on mobile